sensor_id;sensor_type;location;lat;lon;timestamp;pressure;altitude;pressure_sealevel;temperature;humidity
63808;BME280;49961;43.970;22.868;2022-09-13T00:00:26;101164.84;;;17.62;100.00
63808;BME280;49961;43.970;22.868;2022-09-13T00:01:27;101170.44;;;17.62;100.00
63808;BME280;49961;43.970;22.868;2022-09-13T00:02:27;101169.19;;;17.63;100.00
63808;BME280;49961;43.970;22.868;2022-09-13T00:03:28;101170.91;;;17.60;100.00
63808;BME280;49961;43.970;22.868;2022-09-13T00:04:28;101168.09;;;17.60;100.00
63808;BME280;49961;43.970;22.868;2022-09-13T00:05:29;101172.78;;;17.63;100.00
63808;BME280;49961;43.970;22.868;2022-09-13T00:06:30;101153.94;;;17.46;100.00
63808;BME280;49961;43.970;22.868;2022-09-13T00:07:30;101172.00;;;17.53;100.00
63808;BME280;49961;43.970;22.868;2022-09-13T00:08:30;101165.00;;;17.58;100.00
63808;BME280;49961;43.970;22.868;2022-09-13T00:09:31;101143.97;;;17.45;100.00
63808;BME280;49961;43.970;22.868;2022-09-13T00:10:36;101168.28;;;17.66;100.00
63808;BME280;49961;43.970;22.868;2022-09-13T00:11:37;101169.81;;;17.67;100.00
63808;BME280;49961;43.970;22.868;2022-09-13T00:12:38;101170.59;;;17.67;100.00
63808;BME280;49961;43.970;22.868;2022-09-13T00:13:38;101170.59;;;17.67;100.00
63808;BME280;49961;43.970;22.868;2022-09-13T00:14:39;101167.81;;;17.67;100.00
63808;BME280;49961;43.970;22.868;2022-09-13T00:15:46;101168.09;;;17.69;100.00
63808;BME280;49961;43.970;22.868;2022-09-13T00:16:48;101159.69;;;17.69;100.00
63808;BME280;49961;43.970;22.868;2022-09-13T00:17:48;101157.19;;;17.71;100.00
63808;BME280;49961;43.970;22.868;2022-09-13T00:18:50;101156.44;;;17.71;100.00
63808;BME280;49961;43.970;22.868;2022-09-13T00:19:50;101162.03;;;17.71;100.00
63808;BME280;49961;43.970;22.868;2022-09-13T00:20:51;101160.78;;;17.72;100.00
63808;BME280;49961;43.970;22.868;2022-09-13T00:21:51;101164.06;;;17.70;100.00
63808;BME280;49961;43.970;22.868;2022-09-13T00:22:52;101155.19;;;17.72;100.00
63808;BME280;49961;43.970;22.868;2022-09-13T00:23:53;101164.69;;;17.65;100.00
63808;BME280;49961;43.970;22.868;2022-09-13T00:24:54;101141.94;;;17.54;100.00
63808;BME280;49961;43.970;22.868;2022-09-13T00:26:05;101140.06;;;17.51;100.00
63808;BME280;49961;43.970;22.868;2022-09-13T00:27:06;101161.88;;;17.65;100.00
63808;BME280;49961;43.970;22.868;2022-09-13T00:28:06;101153.00;;;17.67;100.00
63808;BME280;49961;43.970;22.868;2022-09-13T00:29:07;101130.75;;;17.54;100.00
63808;BME280;49961;43.970;22.868;2022-09-13T00:30:08;101148.66;;;17.66;100.00
63808;BME280;49961;43.970;22.868;2022-09-13T00:31:09;101152.69;;;17.65;100.00
63808;BME280;49961;43.970;22.868;2022-09-13T00:32:09;101154.41;;;17.62;100.00
63808;BME280;49961;43.970;22.868;2022-09-13T00:33:10;101153.63;;;17.62;100.00
63808;BME280;49961;43.970;22.868;2022-09-13T00:34:10;101147.56;;;17.63;100.00
63808;BME280;49961;43.970;22.868;2022-09-13T00:35:11;101002.19;;;16.66;100.00
63808;BME280;49961;43.970;22.868;2022-09-13T00:36:11;101154.88;;;17.61;100.00
63808;BME280;49961;43.970;22.868;2022-09-13T00:37:12;101151.75;;;17.58;100.00
63808;BME280;49961;43.970;22.868;2022-09-13T00:38:12;101143.84;;;17.57;100.00
63808;BME280;49961;43.970;22.868;2022-09-13T00:39:13;101147.56;;;17.54;100.00
63808;BME280;49961;43.970;22.868;2022-09-13T00:40:13;101133.41;;;17.40;100.00
63808;BME280;49961;43.970;22.868;2022-09-13T00:41:16;101145.38;;;17.49;100.00
63808;BME280;49961;43.970;22.868;2022-09-13T00:42:24;101165.16;;;17.46;100.00
63808;BME280;49961;43.970;22.868;2022-09-13T00:43:45;101137.56;;;17.35;100.00
63808;BME280;49961;43.970;22.868;2022-09-13T00:45:56;101142.56;;;17.31;100.00
63808;BME280;49961;43.970;22.868;2022-09-13T00:46:57;101144.72;;;17.36;100.00
63808;BME280;49961;43.970;22.868;2022-09-13T00:48:00;101148.28;;;17.36;100.00
63808;BME280;49961;43.970;22.868;2022-09-13T00:49:15;101142.84;;;17.33;100.00
63808;BME280;49961;43.970;22.868;2022-09-13T00:51:30;101140.97;;;17.30;100.00
63808;BME280;49961;43.970;22.868;2022-09-13T00:52:32;101144.56;;;17.30;100.00
63808;BME280;49961;43.970;22.868;2022-09-13T00:53:38;101135.22;;;17.24;100.00
63808;BME280;49961;43.970;22.868;2022-09-13T00:54:45;101138.16;;;17.30;100.00
63808;BME280;49961;43.970;22.868;2022-09-13T00:56:56;101133.34;;;17.21;100.00
63808;BME280;49961;43.970;22.868;2022-09-13T00:58:01;101136.59;;;17.20;100.00
63808;BME280;49961;43.970;22.868;2022-09-13T00:59:08;101136.75;;;17.16;100.00
63808;BME280;49961;43.970;22.868;2022-09-13T01:00:13;101139.72;;;17.13;100.00
63808;BME280;49961;43.970;22.868;2022-09-13T01:01:16;101136.28;;;17.09;100.00
63808;BME280;49961;43.970;22.868;2022-09-13T01:02:18;101133.31;;;17.12;100.00
63808;BME280;49961;43.970;22.868;2022-09-13T01:03:21;101067.63;;;16.68;100.00
63808;BME280;49961;43.970;22.868;2022-09-13T01:04:25;101146.56;;;17.12;100.00
63808;BME280;49961;43.970;22.868;2022-09-13T01:05:34;101091.16;;;16.80;100.00
63808;BME280;49961;43.970;22.868;2022-09-13T01:06:37;101156.50;;;17.04;100.00
63808;BME280;49961;43.970;22.868;2022-09-13T01:07:39;101139.25;;;17.05;100.00
63808;BME280;49961;43.970;22.868;2022-09-13T01:08:42;101075.25;;;16.68;100.00
63808;BME280;49961;43.970;22.868;2022-09-13T01:09:47;101148.88;;;17.04;100.00
63808;BME280;49961;43.970;22.868;2022-09-13T01:10:50;101136.75;;;17.07;100.00
63808;BME280;49961;43.970;22.868;2022-09-13T01:11:59;101061.84;;;16.54;100.00
63808;BME280;49961;43.970;22.868;2022-09-13T01:13:09;101076.94;;;16.57;100.00
63808;BME280;49961;43.970;22.868;2022-09-13T01:14:16;101133.03;;;17.10;100.00
63808;BME280;49961;43.970;22.868;2022-09-13T01:15:17;101042.41;;;16.50;100.00
63808;BME280;49961;43.970;22.868;2022-09-13T01:16:18;101140.34;;;17.08;100.00
63808;BME280;49961;43.970;22.868;2022-09-13T01:17:18;101135.38;;;17.12;100.00
63808;BME280;49961;43.970;22.868;2022-09-13T01:18:19;101132.22;;;17.10;100.00
63808;BME280;49961;43.970;22.868;2022-09-13T01:19:19;101136.28;;;17.09;100.00
63808;BME280;49961;43.970;22.868;2022-09-13T01:20:24;101127.88;;;17.09;100.00
63808;BME280;49961;43.970;22.868;2022-09-13T01:29:06;101121.03;;;17.01;100.00
63808;BME280;49961;43.970;22.868;2022-09-13T01:30:20;101128.34;;;17.07;100.00
63808;BME280;49961;43.970;22.868;2022-09-13T01:40:14;101133.63;;;16.96;100.00
63808;BME280;49961;43.970;22.868;2022-09-13T01:48:35;101120.72;;;16.90;100.00
63808;BME280;49961;43.970;22.868;2022-09-13T01:52:37;101125.69;;;16.95;100.00
63808;BME280;49961;43.970;22.868;2022-09-13T01:54:01;101125.69;;;16.95;100.00
63808;BME280;49961;43.970;22.868;2022-09-13T01:55:13;101127.72;;;16.94;100.00
63808;BME280;49961;43.970;22.868;2022-09-13T01:56:31;101087.53;;;16.62;100.00
63808;BME280;49961;43.970;22.868;2022-09-13T01:58:01;101131.91;;;16.90;100.00
63808;BME280;49961;43.970;22.868;2022-09-13T01:59:11;101130.81;;;16.88;100.00
63808;BME280;49961;43.970;22.868;2022-09-13T02:00:15;101125.22;;;16.88;100.00
63808;BME280;49961;43.970;22.868;2022-09-13T02:01:19;101130.03;;;16.87;100.00
63808;BME280;49961;43.970;22.868;2022-09-13T02:03:08;101126.78;;;16.88;100.00
63808;BME280;49961;43.970;22.868;2022-09-13T02:04:11;101028.00;;;16.21;100.00
63808;BME280;49961;43.970;22.868;2022-09-13T02:06:46;101117.59;;;16.88;100.00
63808;BME280;49961;43.970;22.868;2022-09-13T02:07:52;101041.72;;;16.37;100.00
63808;BME280;49961;43.970;22.868;2022-09-13T02:09:01;101118.69;;;16.90;100.00
63808;BME280;49961;43.970;22.868;2022-09-13T02:10:15;101061.06;;;16.53;100.00
63808;BME280;49961;43.970;22.868;2022-09-13T02:11:17;101122.41;;;16.88;100.00
63808;BME280;49961;43.970;22.868;2022-09-13T02:12:27;101108.25;;;16.82;100.00
63808;BME280;49961;43.970;22.868;2022-09-13T02:13:34;101086.06;;;16.48;100.00
63808;BME280;49961;43.970;22.868;2022-09-13T02:14:38;101010.41;;;16.12;100.00
63808;BME280;49961;43.970;22.868;2022-09-13T02:15:44;101111.34;;;16.75;100.00
63808;BME280;49961;43.970;22.868;2022-09-13T02:16:57;101111.91;;;16.61;100.00
63808;BME280;49961;43.970;22.868;2022-09-13T02:18:05;101115.97;;;16.60;100.00
63808;BME280;49961;43.970;22.868;2022-09-13T02:19:14;101108.94;;;16.55;100.00
63808;BME280;49961;43.970;22.868;2022-09-13T02:20:31;100931.84;;;15.40;100.00
63808;BME280;49961;43.970;22.868;2022-09-13T02:21:36;101045.94;;;16.02;100.00
63808;BME280;49961;43.970;22.868;2022-09-13T02:22:43;101118.72;;;16.51;100.00
63808;BME280;49961;43.970;22.868;2022-09-13T02:23:52;101013.41;;;15.87;100.00
63808;BME280;49961;43.970;22.868;2022-09-13T02:25:00;101121.38;;;16.54;100.00
63808;BME280;49961;43.970;22.868;2022-09-13T02:26:03;101111.88;;;16.52;100.00
63808;BME280;49961;43.970;22.868;2022-09-13T02:27:08;101116.72;;;16.52;100.00
63808;BME280;49961;43.970;22.868;2022-09-13T02:28:20;101117.81;;;16.54;100.00
63808;BME280;49961;43.970;22.868;2022-09-13T02:29:44;101117.47;;;16.52;100.00
63808;BME280;49961;43.970;22.868;2022-09-13T02:30:50;101115.94;;;16.51;100.00
63808;BME280;49961;43.970;22.868;2022-09-13T02:32:20;101110.78;;;16.49;100.00
63808;BME280;49961;43.970;22.868;2022-09-13T02:33:35;101115.94;;;16.51;100.00
63808;BME280;49961;43.970;22.868;2022-09-13T02:34:41;101114.03;;;16.48;100.00
63808;BME280;49961;43.970;22.868;2022-09-13T02:36:04;101111.72;;;16.47;100.00
63808;BME280;49961;43.970;22.868;2022-09-13T02:37:07;101113.72;;;16.46;100.00
63808;BME280;49961;43.970;22.868;2022-09-13T02:38:12;101108.84;;;16.37;100.00
63808;BME280;49961;43.970;22.868;2022-09-13T02:39:17;101112.56;;;16.34;100.00
63808;BME280;49961;43.970;22.868;2022-09-13T02:40:25;101110.88;;;16.37;100.00
63808;BME280;49961;43.970;22.868;2022-09-13T02:41:55;101112.00;;;16.39;100.00
63808;BME280;49961;43.970;22.868;2022-09-13T02:42:57;101116.34;;;16.40;100.00
63808;BME280;49961;43.970;22.868;2022-09-13T02:44:15;101109.75;;;16.34;100.00
63808;BME280;49961;43.970;22.868;2022-09-13T02:45:20;101114.03;;;16.39;100.00
63808;BME280;49961;43.970;22.868;2022-09-13T02:47:40;101126.25;;;16.32;100.00
63808;BME280;49961;43.970;22.868;2022-09-13T02:52:10;100993.34;;;15.49;100.00
63808;BME280;49961;43.970;22.868;2022-09-13T02:54:37;101123.28;;;16.36;100.00
63808;BME280;49961;43.970;22.868;2022-09-13T02:55:48;101123.28;;;16.36;100.00
63808;BME280;49961;43.970;22.868;2022-09-13T02:58:11;101124.09;;;16.36;100.00
63808;BME280;49961;43.970;22.868;2022-09-13T02:59:17;101120.03;;;16.37;100.00
63808;BME280;49961;43.970;22.868;2022-09-13T03:00:18;101125.22;;;16.39;100.00
63808;BME280;49961;43.970;22.868;2022-09-13T03:01:20;101116.81;;;16.39;100.00
63808;BME280;49961;43.970;22.868;2022-09-13T03:02:23;101121.19;;;16.40;100.00
63808;BME280;49961;43.970;22.868;2022-09-13T03:03:25;101122.41;;;16.39;100.00
63808;BME280;49961;43.970;22.868;2022-09-13T03:04:26;101025.81;;;15.77;100.00
63808;BME280;49961;43.970;22.868;2022-09-13T03:05:27;101118.81;;;16.38;100.00
63808;BME280;49961;43.970;22.868;2022-09-13T03:06:28;101104.47;;;16.27;100.00
63808;BME280;49961;43.970;22.868;2022-09-13T03:07:29;101119.63;;;16.39;100.00
63808;BME280;49961;43.970;22.868;2022-09-13T03:08:30;100978.56;;;15.39;100.00
63808;BME280;49961;43.970;22.868;2022-09-13T03:09:31;101120.19;;;16.34;100.00
63808;BME280;49961;43.970;22.868;2022-09-13T03:11:35;101121.75;;;16.35;100.00
63808;BME280;49961;43.970;22.868;2022-09-13T03:12:29;101126.38;;;16.29;100.00
63808;BME280;49961;43.970;22.868;2022-09-13T03:15:12;101125.28;;;16.26;100.00
63808;BME280;49961;43.970;22.868;2022-09-13T03:25:07;101122.25;;;16.12;100.00
63808;BME280;49961;43.970;22.868;2022-09-13T03:27:21;101117.13;;;16.10;100.00
63808;BME280;49961;43.970;22.868;2022-09-13T03:30:01;101115.69;;;16.06;100.00
63808;BME280;49961;43.970;22.868;2022-09-13T03:31:07;101103.81;;;15.93;100.00
63808;BME280;49961;43.970;22.868;2022-09-13T03:38:39;101114.72;;;16.00;100.00
63808;BME280;49961;43.970;22.868;2022-09-13T03:39:47;101112.72;;;16.00;100.00
63808;BME280;49961;43.970;22.868;2022-09-13T03:41:04;101119.53;;;15.99;100.00
63808;BME280;49961;43.970;22.868;2022-09-13T03:43:38;101024.16;;;15.36;100.00
63808;BME280;49961;43.970;22.868;2022-09-13T03:44:41;101131.94;;;15.98;100.00
63808;BME280;49961;43.970;22.868;2022-09-13T03:45:49;101101.34;;;15.95;100.00
63808;BME280;49961;43.970;22.868;2022-09-13T03:46:56;101124.66;;;16.01;100.00
63808;BME280;49961;43.970;22.868;2022-09-13T03:47:58;101103.94;;;15.89;100.00
63808;BME280;49961;43.970;22.868;2022-09-13T03:49:07;101123.56;;;15.98;100.00
63808;BME280;49961;43.970;22.868;2022-09-13T03:50:09;101126.06;;;15.96;100.00
63808;BME280;49961;43.970;22.868;2022-09-13T03:51:14;101100.16;;;15.74;100.00
63808;BME280;49961;43.970;22.868;2022-09-13T03:52:14;101124.59;;;15.92;100.00
63808;BME280;49961;43.970;22.868;2022-09-13T03:53:21;101115.59;;;15.88;100.00
63808;BME280;49961;43.970;22.868;2022-09-13T03:54:26;101127.22;;;15.86;100.00
63808;BME280;49961;43.970;22.868;2022-09-13T03:55:28;101120.97;;;15.82;100.00
63808;BME280;49961;43.970;22.868;2022-09-13T03:56:29;101121.63;;;15.86;100.00
63808;BME280;49961;43.970;22.868;2022-09-13T03:57:30;101122.09;;;15.85;100.00
63808;BME280;49961;43.970;22.868;2022-09-13T03:58:30;101111.03;;;15.81;100.00
63808;BME280;49961;43.970;22.868;2022-09-13T03:59:30;101054.47;;;15.47;100.00
63808;BME280;49961;43.970;22.868;2022-09-13T04:00:31;101119.28;;;15.85;100.00
63808;BME280;49961;43.970;22.868;2022-09-13T04:01:33;101119.59;;;15.87;100.00
63808;BME280;49961;43.970;22.868;2022-09-13T04:02:33;101118.84;;;15.86;100.00
63808;BME280;49961;43.970;22.868;2022-09-13T04:03:33;101124.44;;;15.86;100.00
63808;BME280;49961;43.970;22.868;2022-09-13T04:04:34;101094.50;;;15.65;100.00
63808;BME280;49961;43.970;22.868;2022-09-13T04:05:34;101121.19;;;15.88;100.00
63808;BME280;49961;43.970;22.868;2022-09-13T04:06:35;101121.19;;;15.88;100.00
63808;BME280;49961;43.970;22.868;2022-09-13T04:07:35;101124.59;;;15.92;100.00
63808;BME280;49961;43.970;22.868;2022-09-13T04:08:36;101093.25;;;15.66;100.00
63808;BME280;49961;43.970;22.868;2022-09-13T04:09:37;101109.34;;;15.84;100.00
63808;BME280;49961;43.970;22.868;2022-09-13T04:10:37;100972.50;;;14.98;100.00
63808;BME280;49961;43.970;22.868;2022-09-13T04:11:38;101131.50;;;16.00;100.00
63808;BME280;49961;43.970;22.868;2022-09-13T04:12:40;101124.81;;;15.97;100.00
63808;BME280;49961;43.970;22.868;2022-09-13T04:13:40;101127.59;;;15.97;100.00
63808;BME280;49961;43.970;22.868;2022-09-13T04:14:41;101129.28;;;15.95;100.00
63808;BME280;49961;43.970;22.868;2022-09-13T04:15:45;101127.16;;;15.99;100.00
63808;BME280;49961;43.970;22.868;2022-09-13T04:16:45;101122.16;;;15.94;100.00
63808;BME280;49961;43.970;22.868;2022-09-13T04:17:46;101118.75;;;15.99;100.00
63808;BME280;49961;43.970;22.868;2022-09-13T04:18:47;101133.25;;;16.06;100.00
63808;BME280;49961;43.970;22.868;2022-09-13T04:19:47;101132.00;;;16.07;100.00
63808;BME280;49961;43.970;22.868;2022-09-13T04:20:56;101136.81;;;16.07;100.00
63808;BME280;49961;43.970;22.868;2022-09-13T04:21:57;101139.59;;;16.07;100.00
63808;BME280;49961;43.970;22.868;2022-09-13T04:22:57;101136.69;;;16.10;100.00
63808;BME280;49961;43.970;22.868;2022-09-13T04:23:58;101137.00;;;16.12;100.00
63808;BME280;49961;43.970;22.868;2022-09-13T04:24:59;101133.31;;;16.15;100.00
63808;BME280;49961;43.970;22.868;2022-09-13T04:26:04;101136.22;;;16.12;100.00
63808;BME280;49961;43.970;22.868;2022-09-13T04:27:06;101137.31;;;16.14;100.00
63808;BME280;49961;43.970;22.868;2022-09-13T04:28:06;101130.97;;;16.14;100.00
63808;BME280;49961;43.970;22.868;2022-09-13T04:29:07;101142.00;;;16.17;100.00
63808;BME280;49961;43.970;22.868;2022-09-13T04:30:07;101142.66;;;16.21;100.00
63808;BME280;49961;43.970;22.868;2022-09-13T04:31:08;101142.50;;;16.25;100.00
63808;BME280;49961;43.970;22.868;2022-09-13T04:32:09;101145.16;;;16.28;100.00
63808;BME280;49961;43.970;22.868;2022-09-13T04:33:10;101148.63;;;16.32;100.00
63808;BME280;49961;43.970;22.868;2022-09-13T04:34:11;101132.09;;;16.25;100.00
63808;BME280;49961;43.970;22.868;2022-09-13T04:35:12;101142.09;;;16.35;100.00
63808;BME280;49961;43.970;22.868;2022-09-13T04:36:12;101153.19;;;16.39;100.00
63808;BME280;49961;43.970;22.868;2022-09-13T04:37:13;101102.50;;;16.06;100.00
63808;BME280;49961;43.970;22.868;2022-09-13T04:38:14;101146.34;;;16.40;100.00
63808;BME280;49961;43.970;22.868;2022-09-13T04:39:14;101153.03;;;16.42;100.00
63808;BME280;49961;43.970;22.868;2022-09-13T04:40:15;101151.78;;;16.43;100.00
63808;BME280;49961;43.970;22.868;2022-09-13T04:41:15;101105.81;;;16.14;100.00
63808;BME280;49961;43.970;22.868;2022-09-13T04:42:16;101147.75;;;16.44;100.00
63808;BME280;49961;43.970;22.868;2022-09-13T04:43:18;101150.25;;;16.42;100.00
63808;BME280;49961;43.970;22.868;2022-09-13T04:44:20;101103.47;;;16.12;100.00
63808;BME280;49961;43.970;22.868;2022-09-13T04:45:20;101148.84;;;16.47;100.00
63808;BME280;49961;43.970;22.868;2022-09-13T04:46:21;101154.78;;;16.49;100.00
63808;BME280;49961;43.970;22.868;2022-09-13T04:47:21;101115.66;;;16.27;100.00
63808;BME280;49961;43.970;22.868;2022-09-13T04:48:22;101156.19;;;16.53;100.00
63808;BME280;49961;43.970;22.868;2022-09-13T04:49:22;101155.28;;;16.57;100.00
63808;BME280;49961;43.970;22.868;2022-09-13T04:50:24;101149.31;;;16.45;100.00
63808;BME280;49961;43.970;22.868;2022-09-13T04:51:24;101152.50;;;16.57;100.00
63808;BME280;49961;43.970;22.868;2022-09-13T04:52:25;101152.78;;;16.58;100.00
63808;BME280;49961;43.970;22.868;2022-09-13T04:53:25;101154.69;;;16.62;100.00
63808;BME280;49961;43.970;22.868;2022-09-13T04:54:26;101157.00;;;16.63;100.00
63808;BME280;49961;43.970;22.868;2022-09-13T04:55:26;101150.94;;;16.64;100.00
63808;BME280;49961;43.970;22.868;2022-09-13T04:56:27;101163.09;;;16.62;100.00
63808;BME280;49961;43.970;22.868;2022-09-13T04:57:28;101134.41;;;16.48;100.00
63808;BME280;49961;43.970;22.868;2022-09-13T04:58:29;101159.19;;;16.68;100.00
63808;BME280;49961;43.970;22.868;2022-09-13T04:59:29;101163.09;;;16.70;100.00
63808;BME280;49961;43.970;22.868;2022-09-13T05:00:30;101163.44;;;16.73;100.00
63808;BME280;49961;43.970;22.868;2022-09-13T05:01:30;101166.53;;;16.74;100.00
63808;BME280;49961;43.970;22.868;2022-09-13T05:02:31;101121.22;;;16.49;100.00
63808;BME280;49961;43.970;22.868;2022-09-13T05:03:32;101159.38;;;16.73;100.00
63808;BME280;49961;43.970;22.868;2022-09-13T05:04:33;101162.03;;;16.77;100.00
63808;BME280;49961;43.970;22.868;2022-09-13T05:05:33;101158.63;;;16.82;100.00
63808;BME280;49961;43.970;22.868;2022-09-13T05:06:34;101160.19;;;16.83;100.00
63808;BME280;49961;43.970;22.868;2022-09-13T05:07:35;101117.47;;;16.52;100.00
63808;BME280;49961;43.970;22.868;2022-09-13T05:08:35;101128.09;;;16.66;100.00
63808;BME280;49961;43.970;22.868;2022-09-13T05:09:36;101162.38;;;16.88;100.00
63808;BME280;49961;43.970;22.868;2022-09-13T05:10:36;101147.59;;;16.78;100.00
63808;BME280;49961;43.970;22.868;2022-09-13T05:11:37;101163.66;;;16.96;100.00
63808;BME280;49961;43.970;22.868;2022-09-13T05:12:37;101171.25;;;16.95;100.00
63808;BME280;49961;43.970;22.868;2022-09-13T05:13:38;101162.72;;;16.99;100.00
63808;BME280;49961;43.970;22.868;2022-09-13T05:14:38;101166.28;;;16.99;100.00
63808;BME280;49961;43.970;22.868;2022-09-13T05:15:39;101156.50;;;17.04;100.00
63808;BME280;49961;43.970;22.868;2022-09-13T05:16:39;100973.66;;;15.92;100.00
63808;BME280;49961;43.970;22.868;2022-09-13T05:17:40;101156.06;;;17.14;100.00
63808;BME280;49961;43.970;22.868;2022-09-13T05:18:40;101156.06;;;17.14;100.00
63808;BME280;49961;43.970;22.868;2022-09-13T05:19:41;101152.31;;;17.17;100.00
63808;BME280;49961;43.970;22.868;2022-09-13T05:20:41;101156.81;;;17.15;100.00
63808;BME280;49961;43.970;22.868;2022-09-13T05:21:41;101147.34;;;17.03;100.00
63808;BME280;49961;43.970;22.868;2022-09-13T05:22:42;101090.50;;;16.76;100.00
63808;BME280;49961;43.970;22.868;2022-09-13T05:23:43;101155.91;;;17.18;100.00
63808;BME280;49961;43.970;22.868;2022-09-13T05:24:43;101149.38;;;17.21;100.00
63808;BME280;49961;43.970;22.868;2022-09-13T05:25:44;101092.38;;;16.79;100.00
63808;BME280;49961;43.970;22.868;2022-09-13T05:26:44;101154.38;;;17.26;100.00
63808;BME280;49961;43.970;22.868;2022-09-13T05:27:45;101153.44;;;17.29;100.00
63808;BME280;49961;43.970;22.868;2022-09-13T05:28:46;101152.66;;;17.28;100.00
63808;BME280;49961;43.970;22.868;2022-09-13T05:29:46;101106.09;;;17.04;100.00
63808;BME280;49961;43.970;22.868;2022-09-13T05:31:07;101144.72;;;17.36;100.00
63808;BME280;49961;43.970;22.868;2022-09-13T05:32:08;101158.28;;;17.47;100.00
63808;BME280;49961;43.970;22.868;2022-09-13T05:33:08;101152.38;;;17.53;100.00
63808;BME280;49961;43.970;22.868;2022-09-13T05:34:11;101155.03;;;17.57;100.00
63808;BME280;49961;43.970;22.868;2022-09-13T05:35:12;101151.63;;;17.62;100.00
63808;BME280;49961;43.970;22.868;2022-09-13T05:36:13;101149.41;;;17.66;100.00
63808;BME280;49961;43.970;22.868;2022-09-13T05:37:13;101147.56;;;17.72;100.00
63808;BME280;49961;43.970;22.868;2022-09-13T05:38:14;101152.84;;;17.79;100.00
63808;BME280;49961;43.970;22.868;2022-09-13T05:39:15;101153.47;;;17.83;100.00
63808;BME280;49961;43.970;22.868;2022-09-13T05:40:21;101141.00;;;17.75;100.00
63808;BME280;49961;43.970;22.868;2022-09-13T05:41:21;101151.75;;;17.86;100.00
63808;BME280;49961;43.970;22.868;2022-09-13T05:42:22;101158.44;;;17.88;100.00
63808;BME280;49961;43.970;22.868;2022-09-13T05:43:26;101154.69;;;17.91;100.00
63808;BME280;49961;43.970;22.868;2022-09-13T05:44:26;101151.56;;;17.98;100.00
63808;BME280;49961;43.970;22.868;2022-09-13T05:45:27;101148.91;;;18.03;100.00
63808;BME280;49961;43.970;22.868;2022-09-13T05:46:28;101151.69;;;18.13;100.00
63808;BME280;49961;43.970;22.868;2022-09-13T05:47:28;101157.59;;;18.14;100.00
63808;BME280;49961;43.970;22.868;2022-09-13T05:48:30;101128.78;;;18.05;100.00
63808;BME280;49961;43.970;22.868;2022-09-13T05:49:30;101108.09;;;17.93;100.00
63808;BME280;49961;43.970;22.868;2022-09-13T05:50:31;101149.31;;;18.29;100.00
63808;BME280;49961;43.970;22.868;2022-09-13T05:51:31;101153.19;;;18.32;100.00
63808;BME280;49961;43.970;22.868;2022-09-13T05:52:32;101154.91;;;18.38;100.00
63808;BME280;49961;43.970;22.868;2022-09-13T05:53:33;101152.88;;;18.39;100.00
63808;BME280;49961;43.970;22.868;2022-09-13T05:54:34;101145.69;;;18.47;100.00
63808;BME280;49961;43.970;22.868;2022-09-13T05:55:36;101149.69;;;18.55;100.00
63808;BME280;49961;43.970;22.868;2022-09-13T05:56:36;101144.50;;;18.62;100.00
63808;BME280;49961;43.970;22.868;2022-09-13T05:57:37;101146.22;;;18.69;100.00
63808;BME280;49961;43.970;22.868;2022-09-13T05:58:42;101151.19;;;18.74;100.00
63808;BME280;49961;43.970;22.868;2022-09-13T05:59:43;101151.78;;;18.78;100.00
63808;BME280;49961;43.970;22.868;2022-09-13T06:00:44;101144.56;;;18.86;100.00
63808;BME280;49961;43.970;22.868;2022-09-13T06:01:44;101109.56;;;18.63;100.00
63808;BME280;49961;43.970;22.868;2022-09-13T06:02:45;101151.84;;;18.92;100.00
63808;BME280;49961;43.970;22.868;2022-09-13T06:03:49;101150.41;;;18.97;100.00
63808;BME280;49961;43.970;22.868;2022-09-13T06:04:50;101149.47;;;19.00;100.00
63808;BME280;49961;43.970;22.868;2022-09-13T06:05:55;101098.13;;;18.76;100.00
63808;BME280;49961;43.970;22.868;2022-09-13T06:06:56;101144.69;;;19.15;100.00
63808;BME280;49961;43.970;22.868;2022-09-13T06:07:56;101147.78;;;19.17;100.00
63808;BME280;49961;43.970;22.868;2022-09-13T06:08:57;101141.22;;;19.20;100.00
63808;BME280;49961;43.970;22.868;2022-09-13T06:09:57;101142.31;;;19.22;100.00
63808;BME280;49961;43.970;22.868;2022-09-13T06:11:05;101127.50;;;19.22;100.00
63808;BME280;49961;43.970;22.868;2022-09-13T06:12:06;101140.13;;;19.26;100.00
63808;BME280;49961;43.970;22.868;2022-09-13T06:13:07;101141.75;;;19.33;100.00
63808;BME280;49961;43.970;22.868;2022-09-13T06:14:08;101134.53;;;19.41;100.00
63808;BME280;49961;43.970;22.868;2022-09-13T06:15:09;101133.00;;;19.40;100.00
63808;BME280;49961;43.970;22.868;2022-09-13T06:16:12;101132.19;;;19.39;100.00
63808;BME280;49961;43.970;22.868;2022-09-13T06:17:12;101132.31;;;19.45;100.00
63808;BME280;49961;43.970;22.868;2022-09-13T06:18:14;101129.13;;;19.52;100.00
63808;BME280;49961;43.970;22.868;2022-09-13T06:19:15;101126.13;;;19.55;100.00
63808;BME280;49961;43.970;22.868;2022-09-13T06:20:15;101127.50;;;19.60;100.00
63808;BME280;49961;43.970;22.868;2022-09-13T06:21:20;101134.97;;;19.63;100.00
63808;BME280;49961;43.970;22.868;2022-09-13T06:22:21;101131.28;;;19.71;100.00
63808;BME280;49961;43.970;22.868;2022-09-13T06:23:22;101138.09;;;19.79;100.00
63808;BME280;49961;43.970;22.868;2022-09-13T06:24:23;101133.34;;;19.85;100.00